OKBO2: North Canadian River at Britton Rd at OKC, OK

                                SHEF ID:       OKBO2     North Canadian River at Britton
STATION TYPE:

STAGE RIV-FLOW WTR-TEMP DIS-OXY CONDUCT BAT-LOAD
ft cfs F mg/l umho/cm volt
Ccp-Rev Ccp-Rev Ccp-Rev Ccp-Rev Ccp-Rev Ccp-Rev
(America/Chicago)
05/05 00:00 4.74 53 72.07 8.32 1255 11.96
05/05 01:00 4.75 54 71.17 7.19 1298 11.94
05/05 02:00 4.75 54 70.30 6.21 1327 11.94
05/05 03:00 4.77 57 69.62 5.71 1347 11.93
05/05 04:00 4.76 55 68.99 4.96 1375 11.92
05/05 05:00 4.75 54 68.41 4.61 1403 11.91
05/05 06:00 4.80 60 67.93 4.14 1426 11.90
05/05 07:00 4.79 59 67.77 2.97 1413 11.88
05/05 08:00 4.79 59 67.42 3.31 1426 12.01
05/05 09:00 4.78 58 67.59 5.07 1444 12.99
05/05 10:00 4.76 55 68.20 6.34 1443 12.98
05/05 11:00 4.72 50 68.47 7.50 1430 12.99
05/05 12:00 4.72 50 68.04 7.58 1422 12.89
05/05 13:00 4.72 50 67.50 8.03 1411 13.11
05/05 14:00 4.69 47 66.94 9.41 1404 13.03
05/05 15:00 4.70 48 66.56 10.61 1393 13.05
05/05 16:00 4.71 49 66.29 10.81 1379 13.06
05/05 17:00 4.72 50 65.88 11.60 1367 13.09
05/05 18:00 4.71 49 65.28 11.49 1353 12.99
05/05 19:00 4.71 49 64.53 11.87 1338 12.86
05/05 20:00 4.72 50 63.84 10.99 1330 12.76
05/05 21:00 4.73 52 62.92 9.95 1320 12.49
05/05 22:00 4.73 52 62.17 9.03 1318 12.31
05/05 23:00 4.74 53 61.56 7.57 1321 12.16
Data processed at Wed 06May2026 04:25 GMT

NOTICE: If you are parsing this page

Please convert to using our Data API. Starting early 2026 we will be migrating to: https://water.usace.army.mil with modern pages rendered in JavaScript. When this migration completes you will no longer be able to scrape this page! CWMSDataAPI (CDA)

Timeseries IDs (TSIDs)

TSIDs used from left to right in the data table
OKC3.Stage.Inst.1Hour.0.Ccp-Rev
OKC3.Flow.Inst.1Hour.0.Ccp-Rev
OKC3.Temp-Water.Inst.1Hour.0.Ccp-Rev
OKC3.Conc-DO.Inst.1Hour.0.Ccp-Rev
OKC3.Cond-Water.Inst.1Hour.0.Ccp-Rev
OKC3.Volt-Battery Load.Inst.1Hour.0.Ccp-Rev

                            

All information presented herein is the property of the government of the United States of America and may be revised or deleted at any time without prior notice. Dissemination of this information without the expressed written consent of the Public Affairs Office, Tulsa District U.S. Army Corps of Engineers is strictly prohibited. These data are gathered electronically and, as presented, have NOT undergone any form of quality control. These data are NOT guaranteed to be valid or correct.